Time;durP1;ratioP1;P1;durP2;ratioP2;P2;SDS_P1;SDS_P2;PMS_P1;PMS_P2;Temp;Humidity;BMP_temperature;BMP_pressure;BME280_temperature;BME280_humidity;BME280_pressure;Samples;Min_cycle;Max_cycle;Signal;HPM_P1;HPM_P2
2022/11/12 00:00:24;;;;;;;;;78.00;62.33;;;;;7.63;100.00;101140.22;6310054;20;3613956;-52
2022/11/12 00:02:56;;;;;;;;;87.33;68.00;;;;;7.67;100.00;101137.44;6309166;20;3667020;-52
2022/11/12 00:05:29;;;;;;;;;79.67;61.00;;;;;7.53;100.00;101139.59;6277590;20;3641987;-55
2022/11/12 00:08:01;;;;;;;;;74.00;59.00;;;;;7.48;100.00;101137.03;6278341;20;2852449;-53
2022/11/12 00:10:34;;;;;;;;;74.33;56.00;;;;;7.44;100.00;101138.03;6284417;20;3641308;-55
2022/11/12 00:13:07;;;;;;;;;79.33;59.67;;;;;7.46;100.00;101132.66;6311457;20;3645052;-53
2022/11/12 00:15:40;;;;;;;;;74.00;58.00;;;;;7.52;100.00;101129.81;6315922;20;3625290;-51
2022/11/12 00:18:12;;;;;;;;;83.00;61.00;;;;;7.31;100.00;101139.25;6315122;20;3648162;-55
2022/11/12 00:20:45;;;;;;;;;79.00;62.67;;;;;7.46;100.00;101132.66;6283301;20;3639045;-52
2022/11/12 00:23:18;;;;;;;;;80.33;60.00;;;;;7.55;100.00;101131.53;6282272;20;3646247;-48
2022/11/12 00:25:57;;;;;;;;;81.33;60.00;;;;;7.53;100.00;101120.00;6285018;20;3645035;-50
2022/11/12 00:28:30;;;;;;;;;81.00;61.33;;;;;7.42;100.00;101121.16;6284355;20;3634721;-54
2022/11/12 00:31:10;;;;;;;;;77.67;59.00;;;;;7.46;100.00;101119.28;6316757;20;3633596;-55
2022/11/12 00:33:45;;;;;;;;;75.67;58.00;;;;;7.54;100.00;101113.75;6315865;20;3629420;-56
2022/11/12 00:36:18;;;;;;;;;76.33;60.00;;;;;7.59;100.00;101115.38;6314874;20;3609606;-51
2022/11/12 00:38:49;;;;;;;;;74.67;58.33;;;;;7.59;100.00;101112.72;6316844;20;2866124;-53
2022/11/12 00:41:18;;;;;;;;;78.67;60.33;;;;;7.52;100.00;101110.22;6316446;20;3627426;-54
2022/11/12 00:43:50;;;;;;;;;81.00;60.00;;;;;7.62;100.00;101112.63;6314596;20;3656181;-54
2022/11/12 00:46:19;;;;;;;;;76.00;57.00;;;;;7.71;100.00;101111.50;6281618;20;3630458;-50
2022/11/12 00:48:52;;;;;;;;;78.67;59.33;;;;;7.76;100.00;101114.03;6314303;20;3647125;-53
2022/11/12 00:51:25;;;;;;;;;83.33;60.33;;;;;7.69;100.00;101114.22;6312688;20;3649229;-53
2022/11/12 00:53:57;;;;;;;;;73.00;59.00;;;;;7.73;100.00;101106.13;6281148;20;2858720;-56
2022/11/12 00:56:29;;;;;;;;;73.00;55.00;;;;;7.58;100.00;101108.28;6282542;20;3632514;-51
2022/11/12 00:59:06;;;;;;;;;76.00;58.33;;;;;7.60;100.00;101117.13;6312428;20;3636861;-56
2022/11/12 01:01:38;;;;;;;;;71.67;56.33;;;;;7.25;100.00;101112.69;6312889;20;3630630;-55
2022/11/12 01:04:12;;;;;;;;;74.33;56.00;;;;;7.04;100.00;101114.97;6314202;20;3630522;-54
2022/11/12 01:06:45;;;;;;;;;74.67;58.33;;;;;6.99;100.00;101114.19;6311509;20;3609686;-52
2022/11/12 01:09:17;;;;;;;;;76.00;58.00;;;;;7.20;100.00;101107.47;6316083;20;3512748;-54
2022/11/12 01:11:50;;;;;;;;;72.33;54.00;;;;;7.11;100.00;101105.03;6314511;20;3633649;-53
2022/11/12 01:14:22;;;;;;;;;78.33;59.67;;;;;7.12;100.00;101104.09;6318542;20;3642957;-53
2022/11/12 01:16:54;;;;;;;;;78.00;59.33;;;;;7.15;100.00;101106.69;6284504;20;3631491;-53
2022/11/12 01:19:26;;;;;;;;;75.33;59.00;;;;;7.26;100.00;101109.09;6283054;20;3614911;-51
2022/11/12 01:21:58;;;;;;;;;78.00;59.33;;;;;7.35;100.00;101108.00;6313192;20;2877546;-53
2022/11/12 01:24:31;;;;;;;;;73.33;58.33;;;;;7.25;100.00;101102.88;6315235;20;3623184;-54
2022/11/12 01:27:03;;;;;;;;;72.33;57.00;;;;;7.32;100.00;101100.03;6313982;20;3634803;-50
2022/11/12 01:29:36;;;;;;;;;78.67;56.33;;;;;7.31;100.00;101109.00;6314495;20;3642994;-55
2022/11/12 01:32:09;;;;;;;;;76.67;59.00;;;;;7.51;100.00;101117.38;6314787;20;3636816;-50
2022/11/12 01:34:41;;;;;;;;;77.00;59.00;;;;;7.34;100.00;101111.56;6313465;20;3619095;-53
2022/11/12 01:37:14;;;;;;;;;74.33;58.67;;;;;7.43;100.00;101116.69;6312769;20;2869112;-51
2022/11/12 01:39:46;;;;;;;;;78.00;58.67;;;;;7.50;100.00;101112.06;6314416;20;3637795;-52
2022/11/12 01:42:19;;;;;;;;;72.00;55.33;;;;;7.56;100.00;101111.94;6311873;20;3631642;-51
2022/11/12 01:44:54;;;;;;;;;74.33;58.33;;;;;7.14;100.00;101104.94;6314057;20;3626347;-51
2022/11/12 01:47:35;;;;;;;;;73.67;56.00;;;;;7.06;100.00;101106.94;6312188;20;3631556;-54
2022/11/12 01:50:14;;;;;;;;;76.00;58.33;;;;;7.10;100.00;101105.94;6309674;20;3629451;-50
2022/11/12 01:53:00;;;;;;;;;71.67;54.67;;;;;7.03;100.00;101102.53;6311308;20;3644029;-54
2022/11/12 01:55:39;;;;;;;;;75.00;56.00;;;;;7.05;100.00;101099.81;6314076;20;3646101;-50
2022/11/12 01:58:17;;;;;;;;;75.33;59.00;;;;;7.14;100.00;101099.59;6317761;20;3637800;-55
2022/11/12 02:00:51;;;;;;;;;72.33;55.00;;;;;7.17;100.00;101090.66;6282407;20;3633607;-53
2022/11/12 02:03:27;;;;;;;;;72.67;57.67;;;;;7.24;100.00;101085.13;6312946;20;3628484;-53
2022/11/12 02:06:10;;;;;;;;;64.33;50.00;;;;;7.20;100.00;101087.88;6311666;20;2875338;-54
2022/11/12 02:08:43;;;;;;;;;74.67;59.00;;;;;7.27;100.00;101092.16;6309456;20;3619200;-56
2022/11/12 02:11:21;;;;;;;;;78.33;58.00;;;;;7.18;100.00;101079.03;6313330;20;3629456;-56
2022/11/12 02:14:02;;;;;;;;;78.67;59.00;;;;;7.23;100.00;101080.66;6313299;20;3635666;-55
2022/11/12 02:16:43;;;;;;;;;82.33;60.67;;;;;7.03;100.00;101080.31;6310962;20;3649277;-54
2022/11/12 02:19:16;;;;;;;;;79.00;61.67;;;;;6.82;100.00;101082.56;6274631;20;3635748;-55
2022/11/12 02:21:46;;;;;;;;;78.33;59.67;;;;;7.04;100.00;101077.59;6312628;20;3639847;-49
2022/11/12 02:24:15;;;;;;;;;78.00;59.33;;;;;7.01;100.00;101071.44;6310586;20;3624071;-53
2022/11/12 02:26:51;;;;;;;;;79.00;60.33;;;;;7.20;100.00;101075.41;6311744;20;3636873;-54
2022/11/12 02:29:21;;;;;;;;;76.33;59.00;;;;;7.25;100.00;101064.59;6313209;20;3613868;-53
2022/11/12 02:31:50;;;;;;;;;78.00;61.00;;;;;7.19;100.00;101059.44;6313148;20;3620133;-55
2022/11/12 02:34:19;;;;;;;;;79.33;58.00;;;;;7.09;100.00;101065.94;6281664;20;3637766;-53
2022/11/12 02:36:49;;;;;;;;;77.67;59.33;;;;;7.14;100.00;101066.69;6308203;20;3631607;-50
2022/11/12 02:39:18;;;;;;;;;77.00;61.00;;;;;7.23;100.00;101069.09;6310670;20;2868100;-56
2022/11/12 02:41:48;;;;;;;;;72.33;54.67;;;;;7.35;100.00;101066.13;6310206;20;3647155;-56
2022/11/12 02:44:17;;;;;;;;;84.00;61.33;;;;;7.21;100.00;101063.81;6313728;20;3639833;-54
2022/11/12 02:46:47;;;;;;;;;76.33;57.33;;;;;7.28;100.00;101066.31;6311222;20;3645129;-53
2022/11/12 02:49:16;;;;;;;;;82.00;62.00;;;;;7.45;100.00;101066.75;6277194;20;3646081;-53
2022/11/12 02:51:46;;;;;;;;;77.67;60.00;;;;;7.42;100.00;101054.34;6277270;20;3626294;-54
2022/11/12 02:54:15;;;;;;;;;71.33;55.67;;;;;7.39;100.00;101057.09;6312420;20;3620166;-51
2022/11/12 02:56:45;;;;;;;;;76.00;59.67;;;;;7.34;100.00;101066.16;6310714;20;3622159;-54
2022/11/12 02:59:14;;;;;;;;;77.67;60.67;;;;;7.34;100.00;101071.50;6312045;20;3620432;-54
2022/11/12 03:01:44;;;;;;;;;77.00;59.00;;;;;7.35;100.00;101078.63;6312534;20;3634763;-54
2022/11/12 03:04:13;;;;;;;;;75.33;58.00;;;;;7.40;100.00;101079.38;6310864;20;3645213;-51
2022/11/12 03:06:43;;;;;;;;;76.33;59.33;;;;;6.99;100.00;101084.81;6311606;20;2866070;-52
2022/11/12 03:09:12;;;;;;;;;77.00;56.67;;;;;6.81;100.00;101091.47;6314011;20;3645040;-55
2022/11/12 03:11:42;;;;;;;;;63.33;50.00;;;;;6.99;100.00;101099.97;6313034;20;3610671;-53
2022/11/12 03:14:11;;;;;;;;;70.33;52.33;;;;;7.11;100.00;101097.03;6313094;20;3637768;-52
2022/11/12 03:16:41;;;;;;;;;66.67;52.00;;;;;7.00;100.00;101097.28;6308483;20;3631506;-51
2022/11/12 03:19:10;;;;;;;;;72.00;55.00;;;;;7.05;100.00;101110.50;6310957;20;3641009;-52
2022/11/12 03:21:39;;;;;;;;;73.00;56.50;;;;;7.02;100.00;101097.22;6312721;20;3527321;-52
2022/11/12 03:24:08;;;;;;;;;67.67;54.00;;;;;7.14;100.00;101099.59;6311108;20;3622190;-53
2022/11/12 03:26:38;;;;;;;;;76.67;56.33;;;;;7.11;100.00;101104.13;6311107;20;3648261;-52
2022/11/12 03:29:06;;;;;;;;;73.00;55.33;;;;;7.23;100.00;101099.38;6276947;20;3641986;-54
2022/11/12 03:31:37;;;;;;;;;72.33;56.33;;;;;7.38;100.00;101102.59;6309610;20;3629460;-55
2022/11/12 03:34:06;;;;;;;;;72.33;57.00;;;;;7.34;100.00;101100.88;6309691;20;3630606;-52
2022/11/12 03:36:36;;;;;;;;;74.67;58.00;;;;;7.28;100.00;101101.06;6310972;20;3619049;-54
2022/11/12 03:39:05;;;;;;;;;71.00;55.33;;;;;7.41;100.00;101092.69;6309154;20;3616016;-54
2022/11/12 03:41:35;;;;;;;;;70.67;56.00;;;;;7.46;100.00;101095.25;6307028;20;3606532;-51
2022/11/12 03:44:04;;;;;;;;;71.67;54.67;;;;;7.38;100.00;101089.22;6308539;20;3632604;-50
2022/11/12 03:46:34;;;;;;;;;64.67;51.33;;;;;7.58;100.00;101084.25;6305907;20;3628472;-52
2022/11/12 03:49:09;;;;;;;;;70.67;55.67;;;;;7.41;100.00;101087.34;6311198;20;3604439;-51
2022/11/12 03:51:39;;;;;;;;;73.67;54.67;;;;;7.47;100.00;101088.97;6307928;20;3637851;-55
2022/11/12 03:54:08;;;;;;;;;66.67;52.00;;;;;7.54;100.00;101092.38;6310802;20;3641944;-52
2022/11/12 03:56:37;;;;;;;;;71.00;55.67;;;;;7.59;100.00;101096.66;6311043;20;3622118;-51
2022/11/12 03:59:07;;;;;;;;;76.00;57.67;;;;;7.60;100.00;101097.53;6278044;20;3654557;-54
2022/11/12 04:01:37;;;;;;;;;73.33;56.00;;;;;7.04;100.00;101098.06;6310983;20;3632527;-53
2022/11/12 04:04:08;;;;;;;;;74.00;55.67;;;;;7.11;100.00;101097.03;6309812;20;3630489;-52
2022/11/12 04:09:26;;;;;;;;;77.67;55.67;;;;;6.85;100.00;101102.13;6312392;20;3652436;-54
2022/11/12 04:13:26;;;;;;;;;74.00;57.33;;;;;6.84;100.00;101089.66;6277426;20;3623318;-52
2022/11/12 04:14:44;;;;;;;;;81.00;59.50;;;;;6.92;100.00;101098.34;6309194;20;2846241;-52
2022/11/12 04:22:50;;;;;;;;;74.67;57.00;;;;;6.71;100.00;101092.59;6277384;20;3628499;-51
2022/11/12 04:28:08;;;;;;;;;84.33;62.67;;;;;6.69;100.00;101098.88;6311021;20;3645094;-53
2022/11/12 04:30:37;;;;;;;;;83.33;62.00;;;;;6.63;100.00;101099.91;6309821;20;3626321;-52
2022/11/12 04:33:07;;;;;;;;;79.67;61.33;;;;;6.72;100.00;101107.72;6310995;20;3629474;-52
2022/11/12 04:35:36;;;;;;;;;82.67;61.33;;;;;6.80;100.00;101107.56;6311194;20;3642003;-52
2022/11/12 04:38:06;;;;;;;;;73.33;57.33;;;;;6.89;100.00;101095.75;6311726;20;3631558;-54
2022/11/12 04:46:11;;;;;;;;;70.67;53.67;;;;;6.78;100.00;101099.56;6308898;20;3636734;-54
2022/11/12 04:48:41;;;;;;;;;75.67;57.67;;;;;6.84;100.00;101098.53;6307621;20;3630475;-53
2022/11/12 04:53:59;;;;;;;;;69.33;54.67;;;;;6.75;100.00;101102.31;6278980;20;3620083;-56
2022/11/12 04:56:29;;;;;;;;;74.67;59.33;;;;;6.81;100.00;101087.94;6311929;20;3629485;-52
2022/11/12 04:58:58;;;;;;;;;73.67;56.00;;;;;6.78;100.00;101086.22;6314874;20;3638910;-52
2022/11/12 05:01:28;;;;;;;;;75.33;57.00;;;;;6.84;100.00;101089.66;6282677;20;3649229;-53
2022/11/12 05:03:57;;;;;;;;;77.33;60.67;;;;;6.92;100.00;101088.56;6315873;20;2871356;-53
2022/11/12 05:09:28;;;;;;;;;74.00;59.00;;;;;6.81;100.00;101090.59;6281091;20;3625289;-52
2022/11/12 05:11:57;;;;;;;;;73.33;58.00;;;;;6.74;100.00;101087.22;6315088;20;3630479;-55
2022/11/12 05:14:28;;;;;;;;;115.50;96.00;;;;;6.85;100.00;101091.44;6311905;20;4464894;-52
2022/11/12 05:16:56;;;;;;;;;98.00;77.00;;;;;6.85;100.00;101092.31;6279600;20;1944109;-54
2022/11/12 05:19:25;;;;;;;;;90.33;72.00;;;;;6.85;100.00;101096.78;6279339;20;3688890;-53
2022/11/12 05:22:04;;;;;;;;;77.33;59.00;;;;;6.81;100.00;101091.47;6283373;20;3640035;-52
2022/11/12 05:24:41;;;;;;;;;81.67;62.33;;;;;6.64;100.00;101091.00;6315693;20;3636719;-51
2022/11/12 05:27:19;;;;;;;;;77.00;57.00;;;;;6.66;100.00;101089.19;6310830;20;3642495;-51
2022/11/12 05:29:48;;;;;;;;;73.00;57.33;;;;;6.70;100.00;101090.84;6312438;20;3613789;-54
2022/11/12 05:32:18;;;;;;;;;73.33;56.67;;;;;6.68;100.00;101100.69;6314063;20;3636844;-53
2022/11/12 05:34:48;;;;;;;;;94.33;77.00;;;;;6.67;100.00;101098.94;6314023;20;3689892;-53
2022/11/12 05:37:16;;;;;;;;;144.00;115.50;;;;;6.72;100.00;101098.84;6276339;20;1944207;-51
2022/11/12 05:39:45;;;;;;;;;115.00;98.33;;;;;6.76;100.00;101101.38;6283751;20;3697203;-53
2022/11/12 05:42:15;;;;;;;;;131.33;110.33;;;;;6.70;100.00;101106.88;6314147;20;3718099;-53
2022/11/12 05:44:44;;;;;;;;;86.33;67.00;;;;;6.88;100.00;101096.69;6279676;20;3668139;-51
2022/11/12 05:47:15;;;;;;;;;68.67;54.33;;;;;6.76;100.00;101112.06;6282541;20;3637887;-51
2022/11/12 05:49:45;;;;;;;;;75.67;55.67;;;;;6.47;100.00;101101.16;6314065;20;3643019;-52
2022/11/12 05:52:14;;;;;;;;;78.00;57.00;;;;;6.66;100.00;101118.56;6310720;20;3648261;-52
2022/11/12 05:54:43;;;;;;;;;73.00;56.00;;;;;6.78;100.00;101112.91;6281302;20;2884734;-52
2022/11/12 05:57:13;;;;;;;;;65.33;47.00;;;;;6.64;100.00;101123.03;6309749;20;3645185;-54
2022/11/12 05:59:42;;;;;;;;;68.00;54.33;;;;;6.80;100.00;101124.44;6313150;20;3619056;-50
2022/11/12 06:02:12;;;;;;;;;76.00;59.33;;;;;6.89;100.00;101127.81;6312654;20;3623148;-53
2022/11/12 06:04:42;;;;;;;;;80.00;60.00;;;;;6.75;100.00;101134.34;6313338;20;3626433;-52
2022/11/12 06:07:11;;;;;;;;;79.67;60.33;;;;;6.88;100.00;101129.59;6309678;20;3634883;-53
2022/11/12 06:09:40;;;;;;;;;81.33;63.67;;;;;6.97;100.00;101144.53;6311142;20;3626309;-55
2022/11/12 06:12:09;;;;;;;;;78.00;60.00;;;;;6.92;100.00;101146.41;6281654;20;3617944;-51
2022/11/12 06:14:39;;;;;;;;;72.33;54.67;;;;;6.96;100.00;101149.00;6313309;20;3639861;-55
2022/11/12 06:17:08;;;;;;;;;73.33;58.33;;;;;6.98;100.00;101143.63;6300363;20;3609659;-53
2022/11/12 06:19:38;;;;;;;;;77.33;59.33;;;;;6.99;100.00;101153.38;6309489;20;2860934;-54
2022/11/12 06:22:06;;;;;;;;;69.67;53.00;;;;;7.24;100.00;101159.00;6315426;20;3621201;-52
2022/11/12 06:24:36;;;;;;;;;74.00;56.67;;;;;7.18;100.00;101164.50;6279459;20;3637807;-50
2022/11/12 06:27:05;;;;;;;;;72.00;56.67;;;;;7.33;100.00;101160.59;6278313;20;3634689;-54
2022/11/12 06:29:35;;;;;;;;;71.00;56.00;;;;;7.28;100.00;101159.81;6310605;20;3499377;-55
2022/11/12 06:32:04;;;;;;;;;70.67;53.33;;;;;7.40;100.00;101164.88;6311995;20;3634661;-52
2022/11/12 06:34:34;;;;;;;;;68.33;53.67;;;;;7.49;100.00;101167.31;6312745;20;3632547;-54
2022/11/12 06:37:03;;;;;;;;;57.33;47.67;;;;;7.63;100.00;101178.53;6306297;20;2847182;-53
2022/11/12 06:39:33;;;;;;;;;66.00;53.00;;;;;7.80;100.00;101187.94;6312407;20;3621142;-54
2022/11/12 06:42:02;;;;;;;;;66.00;52.33;;;;;7.82;100.00;101186.97;6310101;20;3618014;-54
2022/11/12 06:44:32;;;;;;;;;70.33;52.33;;;;;7.99;100.00;101178.47;6310846;20;2869613;-52
2022/11/12 06:47:02;;;;;;;;;68.33;52.33;;;;;8.06;100.00;101187.25;6310249;20;3629415;-52
2022/11/12 06:49:31;;;;;;;;;73.00;53.00;;;;;8.34;100.00;101184.66;6312827;20;3647119;-53
2022/11/12 06:52:01;;;;;;;;;67.33;51.67;;;;;8.27;100.00;101180.41;6277710;20;3629419;-54
2022/11/12 06:54:30;;;;;;;;;69.00;54.67;;;;;8.17;100.00;101190.50;6313059;20;3626324;-53
2022/11/12 06:57:00;;;;;;;;;69.67;53.00;;;;;8.20;100.00;101189.53;6280740;20;3637779;-51
2022/11/12 06:59:29;;;;;;;;;71.00;51.50;;;;;8.43;100.00;101186.25;6314149;20;3651432;-55
2022/11/12 07:01:58;;;;;;;;;71.00;56.33;;;;;8.35;100.00;101186.44;6317171;20;3603450;-53
2022/11/12 07:04:27;;;;;;;;;73.67;56.67;;;;;8.38;100.00;101189.00;6282227;20;3612894;-57
2022/11/12 07:06:57;;;;;;;;;71.67;54.33;;;;;8.65;100.00;101189.16;6311252;20;3615930;-55
2022/11/12 07:09:25;;;;;;;;;75.33;57.00;;;;;8.31;100.00;101182.06;6315441;20;3640931;-54
2022/11/12 07:11:54;;;;;;;;;76.67;59.67;;;;;8.61;100.00;101191.06;6285066;20;3620169;-55
2022/11/12 07:14:24;;;;;;;;;68.33;51.33;;;;;8.42;100.00;101189.81;6278140;20;3638914;-53
2022/11/12 07:16:53;;;;;;;;;73.00;54.67;;;;;8.47;100.00;101196.78;6309869;20;3629420;-51
2022/11/12 07:19:23;;;;;;;;;75.00;58.00;;;;;8.13;100.00;101200.38;6311191;20;3623189;-53
2022/11/12 07:21:52;;;;;;;;;76.67;55.00;;;;;8.22;100.00;101199.28;6307884;20;3630440;-54
2022/11/12 07:24:22;;;;;;;;;75.00;57.75;;;;;8.33;100.00;101196.28;6312988;20;3643053;-54
2022/11/12 07:26:50;;;;;;;;;75.67;58.33;;;;;8.31;100.00;101182.94;6312179;20;3641968;-52
2022/11/12 07:29:20;;;;;;;;;64.33;50.00;;;;;8.45;100.00;101193.31;6282061;20;3630469;-52
2022/11/12 07:32:09;;;;;;;;;71.67;55.33;;;;;8.41;100.00;101193.44;6311874;20;3628406;-53
2022/11/12 07:34:39;;;;;;;;;69.33;52.00;;;;;8.64;100.00;101200.81;6312672;20;2881815;-52
2022/11/12 07:37:08;;;;;;;;;71.00;52.50;;;;;8.66;100.00;101185.56;6312427;20;3644237;-54
2022/11/12 07:39:38;;;;;;;;;76.00;59.00;;;;;9.06;100.00;101205.78;6312301;20;3632611;-54
2022/11/12 07:42:06;;;;;;;;;98.00;77.00;;;;;9.17;100.00;101193.81;6306265;20;1931526;-56
2022/11/12 07:44:35;;;;;;;;;79.67;60.67;;;;;9.32;100.00;101192.47;6279281;20;3636873;-54
2022/11/12 07:47:05;;;;;;;;;72.00;53.33;;;;;9.38;100.00;101200.28;6276963;20;3644039;-54
2022/11/12 07:49:33;;;;;;;;;71.00;55.00;;;;;9.41;100.00;101202.00;6315906;20;3617984;-51
2022/11/12 07:52:03;;;;;;;;;83.00;67.00;;;;;9.47;100.00;101207.16;6277596;20;3660712;-50
2022/11/12 07:54:32;;;;;;;;;77.33;58.00;;;;;9.57;100.00;101203.25;6279047;20;3633597;-51
2022/11/12 07:57:01;;;;;;;;;77.00;59.33;;;;;9.77;100.00;101201.69;6311226;20;3633737;-53
2022/11/12 07:59:30;;;;;;;;;74.67;57.67;;;;;9.47;100.00;101206.28;6279439;20;3623270;-57
2022/11/12 08:02:00;;;;;;;;;82.33;64.33;;;;;9.57;100.00;101210.41;6277421;20;3656535;-53
2022/11/12 08:04:29;;;;;;;;;79.67;58.67;;;;;9.43;100.00;101209.06;6279772;20;3648157;-53
2022/11/12 08:06:59;;;;;;;;;76.00;57.00;;;;;9.44;100.00;101208.13;6276009;20;3635700;-53
2022/11/12 08:09:28;;;;;;;;;79.33;60.00;;;;;9.42;100.00;101215.34;6312492;20;3641971;-54
2022/11/12 08:11:55;;;;;;;;;84.00;71.50;;;;;9.64;100.00;101220.03;6276039;20;1930468;-54
2022/11/12 08:14:25;;;;;;;;;73.75;57.00;;;;;9.68;100.00;101221.66;6284465;20;3626302;-52
2022/11/12 08:16:55;;;;;;;;;82.00;66.67;;;;;9.80;100.00;101229.31;6311442;20;3662735;-53
2022/11/12 08:19:23;;;;;;;;;74.33;56.00;;;;;9.70;100.00;101233.22;6283859;20;3625291;-53
2022/11/12 08:21:52;;;;;;;;;73.00;56.33;;;;;9.98;100.00;101226.91;6282146;20;3623283;-51
2022/11/12 08:24:22;;;;;;;;;76.33;56.33;;;;;9.96;100.00;101234.16;6281794;20;3629510;-54
2022/11/12 08:26:50;;;;;;;;;74.00;56.00;;;;;10.09;100.00;101235.50;6312643;20;3614817;-51
2022/11/12 08:29:19;;;;;;;;;70.00;54.67;;;;;10.15;100.00;101237.06;6286747;20;3631537;-52
2022/11/12 08:31:50;;;;;;;;;70.67;56.00;;;;;10.18;100.00;101235.16;6290523;20;3626292;-52
2022/11/12 08:34:20;;;;;;;;;70.67;54.00;;;;;10.13;100.00;101245.16;6286987;20;3626385;-50
2022/11/12 08:36:51;;;;;;;;;79.00;60.00;;;;;10.28;100.00;101239.31;6316405;20;3657651;-53
2022/11/12 08:39:19;;;;;;;;;72.33;57.00;;;;;10.22;100.00;101241.31;6321936;20;3603405;-51
2022/11/12 08:41:49;;;;;;;;;77.00;61.00;;;;;10.38;100.00;101249.72;6284052;20;3648262;-52
2022/11/12 08:44:17;;;;;;;;;72.00;57.33;;;;;10.65;100.00;101251.41;6321455;20;3626332;-51
2022/11/12 08:46:46;;;;;;;;;75.33;57.00;;;;;10.91;100.00;101255.81;6285819;20;3621118;-54
2022/11/12 08:49:15;;;;;;;;;77.75;58.00;;;;;11.59;100.00;101251.34;6290183;20;3664970;-56
2022/11/12 08:51:44;;;;;;;;;74.67;56.67;;;;;11.86;100.00;101251.19;6318504;20;3622135;-55
2022/11/12 08:54:13;;;;;;;;;73.33;57.67;;;;;11.57;100.00;101263.97;6288142;20;3615887;-56
2022/11/12 08:56:42;;;;;;;;;72.33;55.00;;;;;11.85;100.00;101257.47;6284786;20;3613792;-53
2022/11/12 08:59:10;;;;;;;;;69.00;54.00;;;;;12.11;99.12;101264.47;6289967;20;3620054;-53
2022/11/12 09:01:40;;;;;;;;;67.00;48.00;;;;;12.08;99.42;101264.59;6282390;20;3649227;-55
2022/11/12 09:04:09;;;;;;;;;67.67;51.33;;;;;12.41;98.02;101273.06;6285313;20;3627392;-54
2022/11/12 09:06:39;;;;;;;;;69.75;52.75;;;;;12.34;97.74;101274.25;6317826;20;3624306;-54
2022/11/12 09:09:09;;;;;;;;;67.25;52.50;;;;;11.28;100.00;101272.34;6322561;20;3637192;-57
2022/11/12 09:11:38;;;;;;;;;70.67;53.67;;;;;10.95;100.00;101281.66;6318994;20;3619134;-54
2022/11/12 09:14:07;;;;;;;;;67.00;51.25;;;;;11.43;100.00;101285.19;6287476;20;3643141;-52
2022/11/12 09:16:37;;;;;;;;;66.00;50.75;;;;;11.23;100.00;101296.72;6314215;20;3637897;-57
2022/11/12 09:19:05;;;;;;;;;65.67;51.33;;;;;11.26;100.00;101291.19;6319389;20;3621128;-54
2022/11/12 09:21:34;;;;;;;;;74.00;56.67;;;;;11.41;100.00;101289.75;6285969;20;3633695;-53
2022/11/12 09:24:03;;;;;;;;;63.00;49.00;;;;;11.57;100.00;101280.13;6286980;20;3628458;-54
2022/11/12 09:26:33;;;;;;;;;67.00;51.25;;;;;11.71;100.00;101279.56;6284253;20;3637832;-55
2022/11/12 09:29:01;;;;;;;;;72.00;53.33;;;;;11.73;100.00;101287.56;6319846;20;3645050;-54
2022/11/12 09:31:31;;;;;;;;;65.00;49.25;;;;;11.90;99.38;101279.72;6288250;20;3637857;-53
2022/11/12 09:34:00;;;;;;;;;70.75;54.00;;;;;11.54;100.00;101284.75;6319577;20;3633617;-51
2022/11/12 09:36:30;;;;;;;;;73.00;54.50;;;;;11.39;100.00;101283.53;6317878;20;3642085;-52
2022/11/12 09:39:05;;;;;;;;;68.75;52.00;;;;;11.88;100.00;101287.00;6318273;20;3642987;-50
2022/11/12 09:41:41;;;;;;;;;74.00;51.25;;;;;11.47;100.00;101286.81;6313858;20;3638863;-50
2022/11/12 09:44:23;;;;;;;;;71.33;54.67;;;;;11.90;100.00;101295.88;6318003;20;3628459;-50
2022/11/12 09:47:11;;;;;;;;;67.67;53.33;;;;;11.86;100.00;101291.56;6283031;20;3630471;-52
2022/11/12 09:50:26;;;;;;;;;65.33;52.00;;;;;12.17;99.71;101292.97;6318762;20;3620079;-49
2022/11/12 09:53:42;;;;;;;;;69.00;54.00;;;;;11.84;100.00;101298.78;6281972;20;3604398;-51
2022/11/12 09:56:17;;;;;;;;;71.00;53.33;;;;;11.83;100.00;101305.09;6281547;20;3640899;-52
2022/11/12 09:58:47;;;;;;;;;76.00;60.00;;;;;11.69;99.87;101310.16;6317892;20;3631524;-53
2022/11/12 10:01:43;;;;;;;;;69.33;49.67;;;;;11.47;100.00;101308.31;6282027;20;3626440;-54
2022/11/12 10:04:27;;;;;;;;;72.67;56.00;;;;;11.36;100.00;101307.88;6316423;20;3623322;-54
2022/11/12 10:07:10;;;;;;;;;71.67;53.67;;;;;11.47;100.00;101304.75;6285282;20;3627361;-53
2022/11/12 10:10:09;;;;;;;;;66.00;51.00;;;;;11.53;100.00;101300.03;6285564;20;3608673;-53
2022/11/12 10:13:14;;;;;;;;;72.00;53.25;;;;;11.72;100.00;101305.53;6282950;20;3629446;-52
2022/11/12 10:19:22;;;;;;;;;70.33;54.00;;;;;11.98;100.00;101291.06;6282623;20;3606583;-53
2022/11/12 10:22:17;;;;;;;;;63.25;50.50;;;;;11.91;100.00;101289.56;6320729;20;3622150;-50
2022/11/12 10:24:48;;;;;;;;;68.67;52.67;;;;;12.23;99.30;101285.50;6314626;20;3617956;-54
2022/11/12 10:27:36;;;;;;;;;60.00;47.33;;;;;12.05;99.14;101284.44;6285717;20;3614899;-55
2022/11/12 10:30:20;;;;;;;;;65.50;50.00;;;;;12.10;99.59;101286.09;6285639;20;3627422;-54
2022/11/12 10:32:51;;;;;;;;;66.67;53.33;;;;;12.34;98.77;101276.94;6318328;20;3607663;-51
2022/11/12 10:35:23;;;;;;;;;64.00;50.00;;;;;12.75;96.97;101260.78;6283852;20;3617979;-53
2022/11/12 10:38:13;;;;;;;;;62.50;48.00;;;;;12.70;95.86;101265.50;6316925;20;3631579;-56
2022/11/12 10:40:42;;;;;;;;;63.25;49.75;;;;;12.71;96.05;101264.53;6317204;20;3625271;-53
2022/11/12 10:43:17;;;;;;;;;58.00;48.00;;;;;12.57;95.70;101272.38;6316021;20;3607693;-50
2022/11/12 10:45:49;;;;;;;;;61.75;48.00;;;;;12.75;94.30;101274.25;6285547;20;3631589;-55
2022/11/12 10:48:33;;;;;;;;;26.00;18.50;;;;;12.54;95.73;101272.53;6315493;20;2842104;-53
2022/11/12 10:51:25;;;;;;;;;64.67;49.33;;;;;12.53;95.79;101282.41;6282110;20;3627386;-52
2022/11/12 10:53:55;;;;;;;;;59.33;45.33;;;;;12.82;95.29;101278.44;6310696;20;3629552;-52
2022/11/12 10:56:30;;;;;;;;;60.67;47.33;;;;;12.37;94.91;101276.81;6314193;20;3629404;-56
2022/11/12 10:59:24;;;;;;;;;60.67;48.67;;;;;12.40;96.00;101267.72;6317766;20;3619062;-53
2022/11/12 11:01:59;;;;;;;;;61.75;48.00;;;;;12.50;96.21;101278.03;6284541;20;3631638;-56
2022/11/12 11:04:35;;;;;;;;;66.00;51.33;;;;;12.69;95.52;101271.81;6316071;20;3621166;-53
2022/11/12 11:07:23;;;;;;;;;62.75;49.00;;;;;11.91;96.80;101248.31;6283539;20;3632590;-53
2022/11/12 11:09:59;;;;;;;;;58.33;47.33;;;;;12.39;96.61;101272.25;6313538;20;3612817;-55
2022/11/12 11:12:33;;;;;;;;;62.33;47.67;;;;;12.40;95.94;101265.03;6283590;20;3613823;-53
2022/11/12 11:15:20;;;;;;;;;59.00;49.00;;;;;12.70;95.29;101271.75;6283310;20;3621096;-51
2022/11/12 11:17:50;;;;;;;;;57.67;44.33;;;;;12.86;93.70;101257.59;6312706;20;3649268;-55
2022/11/12 11:20:43;;;;;;;;;62.75;47.00;;;;;12.91;92.56;101267.22;6317017;20;3650411;-61
2022/11/12 11:23:36;;;;;;;;;59.67;48.00;;;;;12.88;92.57;101261.97;6312370;20;3622148;-56
2022/11/12 11:27:15;;;;;;;;;55.00;45.67;;;;;13.04;93.50;101270.22;6314109;20;3611781;-52
2022/11/12 11:30:20;;;;;;;;;55.00;45.00;;;;;13.13;91.76;101256.28;6281527;20;3618028;-55
2022/11/12 11:33:41;;;;;;;;;51.33;40.33;;;;;13.39;91.50;101267.72;6314922;20;3618025;-53
2022/11/12 11:36:47;;;;;;;;;52.33;42.00;;;;;13.01;92.81;101256.03;6281171;20;2861867;-53
2022/11/12 11:39:59;;;;;;;;;57.25;45.25;;;;;13.08;92.52;101260.16;6313694;20;3642042;-52
2022/11/12 11:43:42;;;;;;;;;53.67;40.00;;;;;13.01;92.56;101251.50;6316412;20;3629499;-53
2022/11/12 11:46:42;;;;;;;;;55.67;43.67;;;;;13.01;92.03;101256.03;6281610;20;3614856;-54